Sect La Playita, Puerto Rico
Current Conditions -  °F | °C
As of 5:56 AM on Sunday 21 Dec 2014 (Local Time) from TJSJ Reporting Station
Few Clouds Few Clouds  
Wind Chill: 75°   Ceiling: Unl
Heat Index: 75°   Visibility: 10mi
Dew Point: 69°   Wind: 3mph
Humidity: 82%   Direction: 110°ESE
Pressure: 30.01"   Gusts: NA
Location:  18.4393°N, 66.0493°W
Report Text: TJSJ 210956Z 11003KT 10SM FEW025 24/21 A3001 RMK AO2 SLP162 T02390206
Loading
Personal Weather Stations






























Interactive Weather Map New forecast layout! Learn more

10-Day Weather Forecast

Advertisements
Track Severe Weather on mobile